createdAt,value
2022-11-24T00:01:11.332Z,17.90
2022-11-24T00:03:38.382Z,15.75
2022-11-24T00:06:12.384Z,15.73
2022-11-24T00:08:41.528Z,18.15
2022-11-24T00:11:11.163Z,14.52
2022-11-24T00:13:41.448Z,20.00
2022-11-24T00:16:20.055Z,17.50
2022-11-24T00:18:49.200Z,19.65
2022-11-24T00:21:17.599Z,13.88
2022-11-24T00:23:45.221Z,17.27
2022-11-24T00:26:14.989Z,17.40
2022-11-24T00:28:43.007Z,16.80
2022-11-24T00:31:31.530Z,15.35
2022-11-24T00:34:00.910Z,19.20
2022-11-24T00:36:29.994Z,15.82
2022-11-24T00:38:59.417Z,14.52
2022-11-24T00:41:27.537Z,18.90
2022-11-24T00:43:55.086Z,16.83
2022-11-24T00:46:23.623Z,19.17
2022-11-24T00:48:51.346Z,15.52
2022-11-24T00:51:19.877Z,21.38
2022-11-24T00:53:47.067Z,18.02
2022-11-24T00:56:14.240Z,18.60
2022-11-24T00:58:41.325Z,17.15
2022-11-24T01:01:10.732Z,18.33
2022-11-24T01:03:38.137Z,16.83
2022-11-24T01:06:13.569Z,17.58
2022-11-24T01:08:41.371Z,16.33
2022-11-24T01:11:29.731Z,15.07
2022-11-24T01:13:59.494Z,17.60
2022-11-24T01:16:30.292Z,15.43
2022-11-24T01:18:57.423Z,18.15
2022-11-24T01:21:24.915Z,14.98
2022-11-24T01:23:51.902Z,14.27
2022-11-24T01:26:21.241Z,12.18
2022-11-24T01:28:52.344Z,17.13
2022-11-24T01:31:19.318Z,16.08
2022-11-24T01:33:46.255Z,14.75
2022-11-24T01:36:13.564Z,16.33
2022-11-24T01:38:40.510Z,18.40
2022-11-24T01:41:12.165Z,18.85
2022-11-24T01:46:32.642Z,17.95
2022-11-24T01:49:08.762Z,15.68
2022-11-24T01:51:43.480Z,18.83
2022-11-24T01:54:19.916Z,17.02
2022-11-24T01:56:50.948Z,17.73
2022-11-24T01:59:20.985Z,17.67
2022-11-24T02:01:51.521Z,16.52
2022-11-24T02:04:23.934Z,14.80
2022-11-24T02:06:52.325Z,16.58
2022-11-24T02:09:25.243Z,17.25
2022-11-24T02:11:53.602Z,18.88
2022-11-24T02:14:22.405Z,19.45
2022-11-24T02:16:50.977Z,16.35
2022-11-24T02:19:36.045Z,17.60
2022-11-24T02:22:03.818Z,15.55
2022-11-24T02:24:47.399Z,19.33
2022-11-24T02:27:14.342Z,19.00
2022-11-24T02:29:41.721Z,21.83
2022-11-24T02:32:11.508Z,18.73
2022-11-24T02:34:38.545Z,18.00
2022-11-24T02:37:05.445Z,14.98
2022-11-24T02:39:32.344Z,18.15
2022-11-24T02:42:09.033Z,19.02
2022-11-24T02:44:47.824Z,17.80
2022-11-24T02:47:14.737Z,23.98
2022-11-24T02:49:41.738Z,18.73
2022-11-24T02:52:08.947Z,17.98
2022-11-24T02:54:36.292Z,19.40
2022-11-24T02:57:03.599Z,20.42
2022-11-24T02:59:30.498Z,17.70
2022-11-24T03:01:57.578Z,20.02
2022-11-24T03:04:24.527Z,27.08
2022-11-24T03:06:51.482Z,23.15
2022-11-24T03:09:18.490Z,23.30
2022-11-24T03:11:45.423Z,21.15
2022-11-24T03:14:12.318Z,24.63
2022-11-24T03:16:39.306Z,27.00
2022-11-24T03:19:06.313Z,25.02
2022-11-24T03:21:33.245Z,24.25
2022-11-24T03:24:00.421Z,26.80
2022-11-24T03:26:28.053Z,22.00
2022-11-24T03:28:56.325Z,23.13
2022-11-24T03:31:24.044Z,23.30
2022-11-24T03:33:51.095Z,22.48
2022-11-24T03:36:18.056Z,21.20
2022-11-24T03:38:45.264Z,25.90
2022-11-24T03:41:12.281Z,26.88
2022-11-24T03:43:43.395Z,23.45
2022-11-24T03:46:11.811Z,22.52
2022-11-24T03:48:39.069Z,24.25
2022-11-24T03:51:06.455Z,26.83
2022-11-24T03:53:34.112Z,27.15
2022-11-24T03:56:02.182Z,28.42
2022-11-24T03:58:29.467Z,27.58
2022-11-24T04:00:57.212Z,28.58
2022-11-24T04:03:24.731Z,26.52
2022-11-24T04:05:52.042Z,23.98
2022-11-24T04:08:19.490Z,26.70
2022-11-24T04:10:51.048Z,26.48
2022-11-24T04:15:45.817Z,31.02
2022-11-24T04:18:13.584Z,30.42
2022-11-24T04:20:41.722Z,26.63
2022-11-24T04:23:10.042Z,28.38
2022-11-24T04:25:37.916Z,28.88
2022-11-24T04:28:05.488Z,29.58
2022-11-24T04:30:32.648Z,33.03
2022-11-24T04:32:59.627Z,30.17
2022-11-24T04:35:26.576Z,34.67
2022-11-24T04:37:53.630Z,27.77
2022-11-24T04:40:20.670Z,28.92
2022-11-24T04:42:55.354Z,30.10
2022-11-24T04:45:23.464Z,23.90
2022-11-24T04:47:50.439Z,28.52
2022-11-24T04:50:17.842Z,29.80
2022-11-24T04:52:44.944Z,32.28
2022-11-24T04:55:12.091Z,30.85
2022-11-24T04:57:39.337Z,27.00
2022-11-24T05:00:07.602Z,21.90
2022-11-24T05:02:34.496Z,29.35
2022-11-24T05:05:01.459Z,26.50
2022-11-24T05:07:28.626Z,27.67
2022-11-24T05:10:14.081Z,27.30
2022-11-24T05:12:40.932Z,32.70
2022-11-24T05:15:08.736Z,30.67
2022-11-24T05:17:38.787Z,32.17
2022-11-24T05:20:06.968Z,34.97
2022-11-24T05:22:33.827Z,32.72
2022-11-24T05:25:00.761Z,31.52
2022-11-24T05:27:27.834Z,38.33
2022-11-24T05:29:54.803Z,36.53
2022-11-24T05:32:21.745Z,31.45
2022-11-24T05:34:48.862Z,32.00
2022-11-24T05:37:16.194Z,32.28
2022-11-24T05:39:43.062Z,29.23
2022-11-24T05:42:47.580Z,31.88
2022-11-24T05:45:21.196Z,36.03
2022-11-24T05:47:50.104Z,38.92
2022-11-24T05:50:19.440Z,30.67
2022-11-24T05:52:46.629Z,30.17
2022-11-24T05:55:15.087Z,33.35
2022-11-24T05:57:42.110Z,32.85
2022-11-24T06:00:10.432Z,31.42
2022-11-24T06:02:37.589Z,31.67
2022-11-24T06:05:04.957Z,31.63
2022-11-24T06:07:31.887Z,29.63
2022-11-24T06:09:58.815Z,32.58
2022-11-24T06:12:25.747Z,28.67
2022-11-24T06:14:52.725Z,34.85
2022-11-24T06:17:19.633Z,39.47
2022-11-24T06:19:50.165Z,31.30
2022-11-24T06:22:19.057Z,28.77
2022-11-24T06:24:46.529Z,30.10
2022-11-24T06:27:14.125Z,27.65
2022-11-24T06:29:41.014Z,39.88
2022-11-24T06:32:08.293Z,35.55
2022-11-24T06:34:35.322Z,33.55
2022-11-24T06:37:02.611Z,34.08
2022-11-24T06:39:29.489Z,38.28
2022-11-24T06:41:56.375Z,33.05
2022-11-24T06:44:23.256Z,33.75
2022-11-24T06:46:50.318Z,27.92
2022-11-24T06:49:17.184Z,34.17
2022-11-24T06:51:44.013Z,31.75
2022-11-24T06:54:14.780Z,36.58
2022-11-24T06:56:41.684Z,29.23
2022-11-24T06:59:18.974Z,30.08
2022-11-24T07:01:47.053Z,31.67
2022-11-24T07:04:15.007Z,29.60
2022-11-24T07:06:42.543Z,31.05
2022-11-24T07:09:11.869Z,30.75
2022-11-24T07:11:39.485Z,30.20
2022-11-24T07:14:07.121Z,28.27
2022-11-24T07:16:34.437Z,35.38
2022-11-24T07:19:01.817Z,35.40
2022-11-24T07:21:30.694Z,40.95
2022-11-24T07:24:01.408Z,37.55
2022-11-24T07:26:28.336Z,35.38
2022-11-24T07:28:55.362Z,34.47
2022-11-24T07:31:26.187Z,36.08
2022-11-24T07:33:55.130Z,30.40
2022-11-24T07:36:23.111Z,32.55
2022-11-24T07:38:50.231Z,34.25
2022-11-24T07:41:19.622Z,37.67
2022-11-24T07:43:47.356Z,37.13
2022-11-24T07:46:16.686Z,38.45
2022-11-24T07:48:44.152Z,31.63
2022-11-24T07:51:11.196Z,35.60
2022-11-24T07:53:38.444Z,37.00
2022-11-24T07:56:06.641Z,36.20
2022-11-24T07:58:36.052Z,36.33
2022-11-24T08:01:13.499Z,34.60
2022-11-24T08:03:41.024Z,26.50
2022-11-24T08:06:23.957Z,27.33
2022-11-24T08:08:53.284Z,26.13
2022-11-24T08:11:20.275Z,29.02
2022-11-24T08:13:47.387Z,27.92
2022-11-24T08:16:16.297Z,25.90
2022-11-24T08:18:44.162Z,27.83
2022-11-24T08:21:14.598Z,24.27
2022-11-24T08:23:42.382Z,21.38
2022-11-24T08:26:15.927Z,26.02
2022-11-24T08:28:43.403Z,25.35
2022-11-24T08:31:13.364Z,26.45
2022-11-24T08:33:41.528Z,28.60
2022-11-24T08:36:11.229Z,26.17
2022-11-24T08:38:38.394Z,30.33
2022-11-24T08:41:10.933Z,28.65
2022-11-24T08:43:38.230Z,28.02
2022-11-24T08:46:09.077Z,28.25
2022-11-24T08:48:36.801Z,30.15
2022-11-24T08:51:12.810Z,31.20
2022-11-24T08:53:40.943Z,29.60
2022-11-24T08:56:09.270Z,32.17
2022-11-24T08:58:36.878Z,28.05
2022-11-24T09:01:15.381Z,27.17
2022-11-24T09:03:49.720Z,25.13
2022-11-24T09:06:23.690Z,28.52
2022-11-24T09:08:52.145Z,26.08
2022-11-24T09:11:19.290Z,34.00
2022-11-24T09:13:46.483Z,26.10
2022-11-24T09:16:17.758Z,28.23
2022-11-24T09:18:44.909Z,23.92
2022-11-24T09:21:18.910Z,24.67
2022-11-24T09:23:48.682Z,28.55
2022-11-24T09:26:21.084Z,23.77
2022-11-24T09:28:48.587Z,27.63
2022-11-24T09:31:17.891Z,22.42
2022-11-24T09:33:45.433Z,29.80
2022-11-24T09:36:12.810Z,29.20
2022-11-24T09:38:40.285Z,29.88
2022-11-24T09:41:25.217Z,32.58
2022-11-24T09:43:51.984Z,28.30
2022-11-24T09:47:00.638Z,30.90
2022-11-24T09:49:37.731Z,28.83
2022-11-24T09:52:13.057Z,30.60
2022-11-24T09:54:51.377Z,30.42
2022-11-24T09:57:21.810Z,25.23
2022-11-24T09:59:48.718Z,27.77
2022-11-24T10:02:15.596Z,25.05
2022-11-24T10:04:44.781Z,23.60
2022-11-24T10:07:38.126Z,26.42
2022-11-24T10:10:29.612Z,22.30
2022-11-24T10:13:20.698Z,28.77
2022-11-24T10:16:29.604Z,24.50
2022-11-24T10:19:22.003Z,25.27
2022-11-24T10:21:57.572Z,30.50
2022-11-24T10:24:49.320Z,27.60
2022-11-24T10:27:24.344Z,22.20
2022-11-24T10:29:53.052Z,27.50
2022-11-24T10:32:22.247Z,25.55
2022-11-24T10:34:50.649Z,25.25
2022-11-24T10:37:28.735Z,31.83
2022-11-24T10:40:17.181Z,31.30
2022-11-24T10:42:58.375Z,27.95
2022-11-24T10:45:27.859Z,34.25
2022-11-24T10:47:54.921Z,32.60
2022-11-24T10:50:23.811Z,25.15
2022-11-24T10:53:25.980Z,22.30
2022-11-24T10:55:56.042Z,27.42
2022-11-24T10:58:35.877Z,36.05
2022-11-24T11:01:13.716Z,27.52
2022-11-24T11:03:48.066Z,27.00
2022-11-24T11:06:24.945Z,27.65
2022-11-24T11:09:17.773Z,23.80
2022-11-24T11:11:47.047Z,24.30
2022-11-24T11:14:28.124Z,25.55
2022-11-24T11:16:57.804Z,22.83
2022-11-24T11:19:49.507Z,46.63
2022-11-24T11:22:30.320Z,28.88
2022-11-24T11:25:23.288Z,26.27
2022-11-24T11:27:50.260Z,31.10
2022-11-24T11:36:24.755Z,24.25
2022-11-24T11:38:51.901Z,27.40
2022-11-24T11:41:41.113Z,25.75
2022-11-24T11:44:36.776Z,22.45
2022-11-24T11:47:28.284Z,21.70
2022-11-24T11:49:55.275Z,27.70
2022-11-24T11:53:00.602Z,27.42
2022-11-24T11:55:55.236Z,29.45
2022-11-24T11:58:49.583Z,24.88
2022-11-24T12:01:41.397Z,25.75
2022-11-24T12:04:36.668Z,28.90
2022-11-24T12:07:25.042Z,23.63
2022-11-24T12:10:01.648Z,19.98
2022-11-24T12:13:03.348Z,20.65
2022-11-24T12:15:52.594Z,22.52
2022-11-24T12:18:57.474Z,23.92
2022-11-24T12:21:50.655Z,25.48
2022-11-24T12:24:36.078Z,24.17
2022-11-24T12:27:10.653Z,28.02
2022-11-24T12:29:59.324Z,29.05
2022-11-24T12:33:00.354Z,31.10
2022-11-24T12:35:41.665Z,30.60
2022-11-24T12:38:41.114Z,25.55
2022-11-24T12:44:00.576Z,26.15
2022-11-24T12:47:09.611Z,26.45
2022-11-24T12:49:47.397Z,27.77
2022-11-24T12:52:25.783Z,24.23
2022-11-24T12:54:53.637Z,29.70
2022-11-24T12:57:41.467Z,27.55
2022-11-24T13:00:20.686Z,23.77
2022-11-24T13:03:27.096Z,16.95
2022-11-24T13:06:10.473Z,20.45
2022-11-24T13:08:38.127Z,21.05
2022-11-24T13:11:22.986Z,25.40
2022-11-24T13:14:17.661Z,34.67
2022-11-24T13:17:27.874Z,19.70
2022-11-24T13:19:43.642Z,25.35
2022-11-24T13:22:16.157Z,26.42
2022-11-24T13:24:45.023Z,30.60
2022-11-24T13:27:24.558Z,22.17
2022-11-24T13:29:52.370Z,23.95
2022-11-24T13:32:19.254Z,32.13
2022-11-24T13:34:47.035Z,24.75
2022-11-24T13:37:26.875Z,29.50
2022-11-24T13:40:03.261Z,29.05
2022-11-24T13:42:43.250Z,22.63
2022-11-24T13:45:40.455Z,23.97
2022-11-24T13:48:20.372Z,21.13
2022-11-24T13:50:50.926Z,23.20
2022-11-24T13:53:36.887Z,21.25
2022-11-24T13:56:12.894Z,20.80
2022-11-24T13:58:44.847Z,19.70
2022-11-24T14:01:17.593Z,21.33
2022-11-24T14:04:28.188Z,25.10
2022-11-24T14:06:45.759Z,19.77
2022-11-24T14:09:22.998Z,20.52
2022-11-24T14:12:26.146Z,26.52
2022-11-24T14:14:57.462Z,19.95
2022-11-24T14:17:27.832Z,27.65
2022-11-24T14:19:56.345Z,25.33
2022-11-24T14:22:29.336Z,25.13
2022-11-24T14:24:58.695Z,23.90
2022-11-24T14:27:37.016Z,31.13
2022-11-24T14:30:09.923Z,21.83
2022-11-24T14:32:37.978Z,24.27
2022-11-24T14:35:25.863Z,22.50
2022-11-24T14:37:52.989Z,26.73
2022-11-24T14:40:38.168Z,22.85
2022-11-24T14:43:15.461Z,25.30
2022-11-24T14:46:10.306Z,25.20
2022-11-24T14:48:52.536Z,18.13
2022-11-24T14:51:34.892Z,28.98
2022-11-24T14:54:05.822Z,25.55
2022-11-24T14:56:38.648Z,22.00
2022-11-24T14:59:21.376Z,22.70
2022-11-24T15:01:48.374Z,25.30
2022-11-24T15:07:27.198Z,26.02
2022-11-24T15:10:00.123Z,15.40
2022-11-24T15:12:39.484Z,14.55
2022-11-24T15:15:20.090Z,23.08
2022-11-24T15:17:53.151Z,24.48
2022-11-24T15:20:35.243Z,16.95
2022-11-24T15:23:20.807Z,16.45
2022-11-24T15:25:48.256Z,20.75
2022-11-24T15:28:15.079Z,19.60
2022-11-24T15:30:42.269Z,20.27
2022-11-24T15:33:17.459Z,26.25
2022-11-24T15:35:45.092Z,18.60
2022-11-24T15:38:12.444Z,26.10
2022-11-24T15:40:40.574Z,19.30
2022-11-24T15:43:19.519Z,24.60
2022-11-24T15:45:46.437Z,24.90
2022-11-24T15:48:17.756Z,25.23
2022-11-24T15:50:46.317Z,18.30
2022-11-24T15:53:28.150Z,20.50
2022-11-24T15:58:24.555Z,18.27
2022-11-24T16:00:53.620Z,23.05
2022-11-24T16:06:19.120Z,65.93
2022-11-24T16:08:50.522Z,25.77
2022-11-24T16:11:17.459Z,36.22
2022-11-24T16:13:50.141Z,25.30
2022-11-24T16:16:19.499Z,23.58
2022-11-24T16:18:46.458Z,37.92
2022-11-24T16:21:13.373Z,30.92
2022-11-24T16:23:40.235Z,23.50
2022-11-24T16:26:07.478Z,31.75
2022-11-24T16:28:34.391Z,38.40
2022-11-24T16:31:01.328Z,28.40
2022-11-24T16:33:31.110Z,32.45
2022-11-24T16:35:58.071Z,42.42
2022-11-24T16:38:25.141Z,38.80
2022-11-24T16:40:53.400Z,36.30
2022-11-24T16:43:20.726Z,29.63
2022-11-24T16:46:16.190Z,37.63
2022-11-24T16:48:44.500Z,28.48
2022-11-24T16:51:12.971Z,39.47
2022-11-24T16:53:40.286Z,32.22
2022-11-24T16:56:08.212Z,32.45
2022-11-24T16:58:39.995Z,31.23
2022-11-24T17:01:12.344Z,26.48
2022-11-24T17:03:39.981Z,27.58
2022-11-24T17:06:08.834Z,29.27
2022-11-24T17:08:37.324Z,25.92
2022-11-24T17:11:17.198Z,27.95
2022-11-24T17:13:45.824Z,31.58
2022-11-24T17:16:14.421Z,28.05
2022-11-24T17:18:41.771Z,24.40
2022-11-24T17:21:12.863Z,24.80
2022-11-24T17:23:40.307Z,25.30
2022-11-24T17:26:10.337Z,25.42
2022-11-24T17:28:37.766Z,24.48
2022-11-24T17:31:26.465Z,22.20
2022-11-24T17:33:55.726Z,24.25
2022-11-24T17:36:23.494Z,27.30
2022-11-24T17:38:50.396Z,26.83
2022-11-24T17:41:18.596Z,30.75
2022-11-24T17:43:53.135Z,25.17
2022-11-24T17:46:20.455Z,26.05
2022-11-24T17:48:47.840Z,24.45
2022-11-24T17:51:18.080Z,29.27
2022-11-24T17:53:46.835Z,25.70
2022-11-24T17:56:16.631Z,23.58
2022-11-24T17:58:43.685Z,26.25
2022-11-24T18:01:12.451Z,29.80
2022-11-24T18:03:42.686Z,32.97
2022-11-24T18:06:14.897Z,26.38
2022-11-24T18:08:45.130Z,26.70
2022-11-24T18:11:17.465Z,24.95
2022-11-24T18:16:33.645Z,21.85
2022-11-24T18:19:10.698Z,21.48
2022-11-24T18:21:41.847Z,26.10
2022-11-24T18:24:10.266Z,25.85
2022-11-24T18:26:38.586Z,24.52
2022-11-24T18:29:05.941Z,24.38
2022-11-24T18:31:35.532Z,25.00
2022-11-24T18:34:04.653Z,26.10
2022-11-24T18:36:32.358Z,23.02
2022-11-24T18:39:07.435Z,23.73
2022-11-24T18:41:34.451Z,22.85
2022-11-24T18:44:08.006Z,24.20
2022-11-24T18:46:35.586Z,25.45
2022-11-24T18:49:02.519Z,23.35
2022-11-24T18:51:30.089Z,23.55
2022-11-24T18:54:00.063Z,24.35
2022-11-24T18:56:27.152Z,20.48
2022-11-24T18:58:56.020Z,22.27
2022-11-24T19:01:26.356Z,22.98
2022-11-24T19:03:58.025Z,18.40
2022-11-24T19:06:32.597Z,27.23
2022-11-24T19:09:04.357Z,23.27
2022-11-24T19:11:34.028Z,21.77
2022-11-24T19:14:02.609Z,23.55
2022-11-24T19:16:29.572Z,47.55
2022-11-24T19:19:02.530Z,25.45
2022-11-24T19:21:33.936Z,28.90
2022-11-24T19:24:05.085Z,23.55
2022-11-24T19:26:35.392Z,23.27
2022-11-24T19:29:03.649Z,27.08
2022-11-24T19:31:30.943Z,23.95
2022-11-24T19:33:59.801Z,27.02
2022-11-24T19:36:26.875Z,27.58
2022-11-24T19:38:55.734Z,27.13
2022-11-24T19:41:26.370Z,25.58
2022-11-24T19:43:53.753Z,25.45
2022-11-24T19:46:22.982Z,30.55
2022-11-24T19:48:51.176Z,26.67
2022-11-24T19:51:20.691Z,21.73
2022-11-24T19:53:47.616Z,19.83
2022-11-24T19:56:18.013Z,21.15
2022-11-24T19:58:44.981Z,22.88
2022-11-24T20:01:14.709Z,26.08
2022-11-24T20:03:43.303Z,21.15
2022-11-24T20:06:13.467Z,23.02
2022-11-24T20:08:41.503Z,19.67
2022-11-24T20:11:14.189Z,26.15
2022-11-24T20:13:42.775Z,23.30
2022-11-24T20:16:12.207Z,20.83
2022-11-24T20:18:43.772Z,21.67
2022-11-24T20:21:16.305Z,21.45
2022-11-24T20:23:44.868Z,22.13
2022-11-24T20:26:19.691Z,27.45
2022-11-24T20:28:47.193Z,24.50
2022-11-24T20:31:16.592Z,21.45
2022-11-24T20:33:44.592Z,22.52
2022-11-24T20:36:19.533Z,18.55
2022-11-24T20:38:47.724Z,18.67
2022-11-24T20:41:15.881Z,18.73
2022-11-24T20:43:43.816Z,20.33
2022-11-24T20:46:14.151Z,20.35
2022-11-24T20:48:41.795Z,22.23
2022-11-24T20:51:12.194Z,19.23
2022-11-24T20:53:39.905Z,21.67
2022-11-24T20:56:18.660Z,16.38
2022-11-24T20:58:46.645Z,16.98
2022-11-24T21:01:15.158Z,19.98
2022-11-24T21:03:43.652Z,16.83
2022-11-24T21:06:14.127Z,16.55
2022-11-24T21:08:42.437Z,21.25
2022-11-24T21:11:11.674Z,21.38
2022-11-24T21:13:39.820Z,17.10
2022-11-24T21:16:23.165Z,20.08
2022-11-24T21:18:52.076Z,18.83
2022-11-24T21:21:20.582Z,22.05
2022-11-24T21:23:48.643Z,21.08
2022-11-24T21:26:17.376Z,21.48
2022-11-24T21:28:46.432Z,21.55
2022-11-24T21:31:18.317Z,19.25
2022-11-24T21:33:50.229Z,17.88
2022-11-24T21:36:20.374Z,18.95
2022-11-24T21:38:55.319Z,23.63
2022-11-24T21:41:23.959Z,21.23
2022-11-24T21:43:52.654Z,23.75
2022-11-24T21:46:19.838Z,17.23
2022-11-24T21:48:46.790Z,19.92
2022-11-24T21:51:15.891Z,22.08
2022-11-24T21:53:44.333Z,20.20
2022-11-24T21:56:14.654Z,19.55
2022-11-24T21:58:50.093Z,22.77
2022-11-24T22:01:19.082Z,17.90
2022-11-24T22:03:46.699Z,19.75
2022-11-24T22:06:14.495Z,17.38
2022-11-24T22:08:41.541Z,16.75
2022-11-24T22:11:13.395Z,17.83
2022-11-24T22:13:41.294Z,16.77
2022-11-24T22:16:11.025Z,18.45
2022-11-24T22:18:40.774Z,17.33
2022-11-24T22:21:10.785Z,16.77
2022-11-24T22:23:37.981Z,21.58
2022-11-24T22:26:16.396Z,20.83
2022-11-24T22:28:47.301Z,22.05
2022-11-24T22:31:18.836Z,17.00
2022-11-24T22:33:46.431Z,18.13
2022-11-24T22:36:14.890Z,17.20
2022-11-24T22:38:42.545Z,17.27
2022-11-24T22:41:15.774Z,18.27
2022-11-24T22:43:44.488Z,15.65
2022-11-24T22:46:15.573Z,16.13
2022-11-24T22:48:43.849Z,17.05
2022-11-24T22:51:13.752Z,15.70
2022-11-24T22:53:41.228Z,18.35
2022-11-24T22:56:12.018Z,16.48
2022-11-24T22:58:40.348Z,14.47
2022-11-24T23:01:18.428Z,16.05
2022-11-24T23:03:45.780Z,14.90
2022-11-24T23:06:20.971Z,14.48
2022-11-24T23:08:49.976Z,13.20
2022-11-24T23:11:27.349Z,16.67
2022-11-24T23:14:00.544Z,15.90
2022-11-24T23:16:28.948Z,14.50
2022-11-24T23:18:56.286Z,14.90
2022-11-24T23:21:28.672Z,13.50
2022-11-24T23:23:56.570Z,14.30
2022-11-24T23:26:28.672Z,13.93
2022-11-24T23:28:55.709Z,15.82
2022-11-24T23:31:30.311Z,14.68
2022-11-24T23:34:02.350Z,15.13
2022-11-24T23:36:30.425Z,15.30
2022-11-24T23:39:05.255Z,18.30
2022-11-24T23:41:32.458Z,15.70
2022-11-24T23:44:00.240Z,16.75
2022-11-24T23:46:28.462Z,12.20
2022-11-24T23:48:56.210Z,13.95
2022-11-24T23:51:28.244Z,14.10
2022-11-24T23:53:56.124Z,12.98
2022-11-24T23:56:25.150Z,14.20
2022-11-24T23:58:52.427Z,13.55
